createdAt,value
2023-05-11T01:01:23.180Z,2.60
2023-05-11T01:03:52.175Z,2.90
2023-05-11T01:06:29.068Z,2.80
2023-05-11T01:09:03.653Z,2.67
2023-05-11T01:11:42.325Z,2.20
2023-05-11T01:14:16.530Z,2.57
2023-05-11T01:16:49.482Z,2.90
2023-05-11T01:19:33.483Z,3.00
2023-05-11T01:22:15.928Z,3.03
2023-05-11T01:25:04.849Z,2.80
2023-05-11T01:28:10.266Z,2.63
2023-05-11T01:30:48.490Z,3.03
2023-05-11T01:33:21.691Z,2.57
2023-05-11T01:35:54.817Z,2.80
2023-05-11T01:38:28.335Z,2.67
2023-05-11T01:40:59.764Z,3.10
2023-05-11T01:43:33.595Z,3.10
2023-05-11T01:46:10.383Z,3.03
2023-05-11T01:48:42.590Z,2.95
2023-05-11T01:51:13.461Z,2.67
2023-05-11T01:53:44.505Z,2.93
2023-05-11T01:56:14.550Z,2.90
2023-05-11T01:58:45.483Z,2.97
2023-05-11T02:01:16.557Z,2.77
2023-05-11T02:03:49.142Z,3.10
2023-05-11T02:06:20.769Z,2.70
2023-05-11T02:08:52.539Z,2.90
2023-05-11T02:11:27.858Z,2.70
2023-05-11T02:13:59.639Z,2.83
2023-05-11T02:16:33.283Z,2.80
2023-05-11T02:19:03.320Z,2.70
2023-05-11T02:21:33.451Z,2.83
2023-05-11T02:24:08.583Z,2.53
2023-05-11T02:26:39.027Z,2.87
2023-05-11T02:29:07.996Z,2.80
2023-05-11T02:31:49.226Z,2.57
2023-05-11T02:34:22.733Z,2.93
2023-05-11T02:36:57.717Z,3.10
2023-05-11T02:39:33.576Z,3.03
2023-05-11T02:42:10.984Z,2.50
2023-05-11T02:44:44.604Z,2.90
2023-05-11T02:49:49.130Z,2.47
2023-05-11T02:54:53.241Z,2.63
2023-05-11T02:57:23.150Z,2.70
2023-05-11T02:59:53.783Z,2.97
2023-05-11T03:02:23.237Z,2.93
2023-05-11T03:04:52.796Z,2.70
2023-05-11T03:07:22.068Z,2.57
2023-05-11T03:09:51.561Z,2.47
2023-05-11T03:12:21.301Z,2.70
2023-05-11T03:14:52.384Z,2.60
2023-05-11T03:17:22.643Z,2.80
2023-05-11T03:19:52.958Z,2.93
2023-05-11T03:22:22.892Z,2.97
2023-05-11T03:24:53.399Z,3.10
2023-05-11T03:27:23.860Z,3.00
2023-05-11T03:29:54.596Z,3.10
2023-05-11T03:32:23.776Z,2.73
2023-05-11T03:34:53.254Z,3.10
2023-05-11T03:37:22.966Z,2.70
2023-05-11T03:39:58.064Z,2.83
2023-05-11T03:42:28.334Z,2.70
2023-05-11T03:44:59.255Z,2.87
2023-05-11T03:47:29.364Z,2.50
2023-05-11T03:49:59.909Z,3.33
2023-05-11T03:52:31.741Z,2.67
2023-05-11T03:55:02.681Z,2.53
2023-05-11T03:57:33.140Z,3.70
2023-05-11T04:00:03.306Z,2.77
2023-05-11T04:02:36.816Z,2.97
2023-05-11T04:05:09.085Z,2.60
2023-05-11T04:07:38.924Z,2.83
2023-05-11T04:10:09.641Z,3.20
2023-05-11T04:12:38.620Z,2.83
2023-05-11T04:15:09.273Z,3.20
2023-05-11T04:17:38.782Z,3.27
2023-05-11T04:20:10.008Z,2.77
2023-05-11T04:22:38.875Z,3.20
2023-05-11T04:25:08.926Z,3.20
2023-05-11T04:27:41.629Z,2.60
2023-05-11T04:30:11.788Z,2.87
2023-05-11T04:32:40.826Z,3.13
2023-05-11T04:35:11.471Z,2.90
2023-05-11T04:37:42.441Z,2.63
2023-05-11T04:40:13.585Z,2.97
2023-05-11T04:42:43.112Z,2.87
2023-05-11T04:45:17.035Z,2.37
2023-05-11T04:47:46.174Z,2.40
2023-05-11T04:50:15.792Z,2.50
2023-05-11T04:52:44.955Z,3.13
2023-05-11T04:55:13.939Z,3.00
2023-05-11T04:57:43.018Z,2.47
2023-05-11T05:00:13.401Z,2.97
2023-05-11T05:02:42.423Z,2.83
2023-05-11T05:05:13.855Z,2.60
2023-05-11T05:07:42.731Z,2.33
2023-05-11T05:10:12.412Z,2.50
2023-05-11T05:12:41.344Z,2.50
2023-05-11T05:15:12.169Z,2.60
2023-05-11T05:17:40.977Z,2.87
2023-05-11T05:20:11.573Z,2.57
2023-05-11T05:22:41.169Z,2.40
2023-05-11T05:25:11.494Z,2.67
2023-05-11T05:27:42.468Z,2.70
2023-05-11T05:30:17.922Z,2.40
2023-05-11T05:32:47.669Z,2.57
2023-05-11T05:35:17.761Z,2.33
2023-05-11T05:37:48.962Z,2.30
2023-05-11T05:40:19.430Z,2.47
2023-05-11T05:42:55.415Z,2.63
2023-05-11T05:45:28.511Z,2.20
2023-05-11T05:48:00.053Z,2.80
2023-05-11T05:50:33.026Z,2.40
2023-05-11T05:53:04.849Z,2.80
2023-05-11T05:55:35.190Z,2.47
2023-05-11T05:58:05.773Z,2.10
2023-05-11T06:00:37.527Z,2.40
2023-05-11T06:03:08.254Z,2.40
2023-05-11T06:05:38.101Z,2.50
2023-05-11T06:08:11.009Z,2.40
2023-05-11T06:10:41.148Z,2.43
2023-05-11T06:13:13.301Z,2.87
2023-05-11T06:15:44.041Z,2.77
2023-05-11T06:18:28.811Z,2.60
2023-05-11T06:21:00.055Z,2.40
2023-05-11T06:23:29.835Z,2.83
2023-05-11T06:26:02.714Z,2.70
2023-05-11T06:28:34.064Z,2.07
2023-05-11T06:42:27.407Z,2.60
2023-05-11T06:45:11.688Z,2.80
2023-05-11T06:47:46.867Z,3.20
2023-05-11T06:50:21.434Z,3.13
2023-05-11T06:52:54.635Z,2.20
2023-05-11T06:55:27.896Z,2.47
2023-05-11T06:58:02.256Z,2.27
2023-05-11T07:00:37.223Z,2.12
2023-05-11T07:03:09.783Z,2.13
2023-05-11T07:05:42.236Z,2.27
2023-05-11T07:08:14.429Z,2.67
2023-05-11T07:10:47.000Z,2.30
2023-05-11T07:13:19.184Z,2.05
2023-05-11T07:15:51.591Z,2.03
2023-05-11T07:18:23.871Z,2.03
2023-05-11T07:20:56.186Z,2.20
2023-05-11T07:23:28.458Z,2.00
2023-05-11T07:26:01.217Z,2.30
2023-05-11T07:28:33.620Z,2.10
2023-05-11T07:31:07.241Z,2.20
2023-05-11T07:33:41.539Z,2.27
2023-05-11T07:36:16.383Z,1.50
2023-05-11T07:38:48.657Z,2.25
2023-05-11T07:41:23.207Z,2.00
2023-05-11T07:43:55.586Z,2.00
2023-05-11T07:46:27.972Z,1.93
2023-05-11T07:49:14.463Z,2.20
2023-05-11T07:51:52.760Z,2.33
2023-05-11T07:54:25.102Z,2.20
2023-05-11T07:56:57.683Z,2.07
2023-05-11T07:59:29.954Z,2.10
2023-05-11T08:02:02.691Z,1.73
2023-05-11T08:04:35.190Z,2.07
2023-05-11T08:07:07.914Z,1.93
2023-05-11T08:09:40.831Z,2.00
2023-05-11T08:12:13.572Z,2.17
2023-05-11T08:14:45.768Z,1.60
2023-05-11T08:17:18.029Z,1.63
2023-05-11T08:19:51.220Z,1.87
2023-05-11T08:22:24.319Z,2.02
2023-05-11T08:24:56.458Z,1.60
2023-05-11T08:27:29.075Z,1.93
2023-05-11T08:30:01.887Z,1.70
2023-05-11T08:32:46.640Z,1.80
2023-05-11T08:35:26.712Z,2.17
2023-05-11T08:37:59.288Z,2.10
2023-05-11T08:40:33.980Z,2.27
2023-05-11T08:43:08.362Z,1.90
2023-05-11T08:45:42.291Z,1.77
2023-05-11T08:48:17.846Z,1.77
2023-05-11T08:50:51.091Z,1.87
2023-05-11T08:53:24.102Z,1.77
2023-05-11T08:55:59.191Z,1.70
2023-05-11T08:58:32.457Z,1.73
2023-05-11T09:01:11.256Z,1.40
2023-05-11T09:03:46.939Z,2.07
2023-05-11T09:06:20.049Z,2.03
2023-05-11T09:08:52.664Z,2.10
2023-05-11T09:11:25.889Z,2.10
2023-05-11T09:13:58.786Z,2.10
2023-05-11T09:16:37.228Z,2.00
2023-05-11T09:19:15.096Z,2.07
2023-05-11T09:21:48.327Z,1.77
2023-05-11T09:24:22.816Z,1.57
2023-05-11T09:27:07.274Z,2.00
2023-05-11T09:29:39.825Z,1.90
2023-05-11T09:32:12.043Z,1.70
2023-05-11T09:34:44.585Z,1.90
2023-05-11T09:37:20.496Z,2.23
2023-05-11T09:42:32.832Z,1.60
2023-05-11T09:45:11.885Z,1.60
2023-05-11T09:47:44.229Z,1.90
2023-05-11T09:50:26.210Z,1.93
2023-05-11T09:52:59.021Z,1.67
2023-05-11T09:55:31.646Z,1.70
2023-05-11T09:58:04.668Z,1.80
2023-05-11T10:00:51.212Z,1.77
2023-05-11T10:03:25.862Z,1.60
2023-05-11T10:06:02.654Z,1.63
2023-05-11T10:08:44.692Z,1.67
2023-05-11T10:11:17.359Z,1.70
2023-05-11T10:13:49.998Z,1.87
2023-05-11T10:16:23.846Z,1.20
2023-05-11T10:18:58.121Z,1.57
2023-05-11T10:21:31.959Z,1.77
2023-05-11T10:24:06.683Z,1.70
2023-05-11T10:26:40.251Z,1.53
2023-05-11T10:29:13.330Z,1.83
2023-05-11T10:31:48.436Z,1.47
2023-05-11T10:34:23.478Z,1.53
2023-05-11T10:36:57.124Z,1.70
2023-05-11T10:42:18.018Z,1.90
2023-05-11T10:45:07.414Z,2.03
2023-05-11T10:48:18.352Z,1.80
2023-05-11T10:51:11.910Z,2.27
2023-05-11T10:54:02.093Z,1.70
2023-05-11T10:56:47.953Z,1.90
2023-05-11T10:59:53.440Z,1.63
2023-05-11T11:02:32.248Z,1.60
2023-05-11T11:05:11.199Z,1.60
2023-05-11T11:08:04.825Z,1.87
2023-05-11T11:10:39.190Z,1.90
2023-05-11T11:13:13.016Z,2.00
2023-05-11T11:16:16.170Z,1.83
2023-05-11T11:18:49.110Z,1.85
2023-05-11T11:21:42.565Z,1.70
2023-05-11T11:24:48.044Z,1.65
2023-05-11T11:27:20.351Z,1.50
2023-05-11T11:30:19.630Z,2.07
2023-05-11T11:32:54.166Z,1.87
2023-05-11T11:35:50.049Z,1.60
2023-05-11T11:38:23.025Z,1.87
2023-05-11T11:40:55.594Z,1.40
2023-05-11T11:43:29.815Z,1.63
2023-05-11T11:46:03.692Z,1.70
2023-05-11T11:48:41.696Z,1.50
2023-05-11T11:51:14.854Z,2.10
2023-05-11T11:56:46.132Z,1.90
2023-05-11T11:59:19.210Z,1.67
2023-05-11T12:01:55.060Z,1.87
2023-05-11T12:04:47.640Z,1.70
2023-05-11T12:07:22.763Z,1.80
2023-05-11T12:09:55.996Z,1.73
2023-05-11T12:12:28.653Z,1.80
2023-05-11T12:15:02.512Z,2.02
2023-05-11T12:17:39.367Z,1.93
2023-05-11T12:20:17.500Z,2.13
2023-05-11T12:22:50.346Z,1.53
2023-05-11T12:25:23.639Z,2.05
2023-05-11T12:30:32.444Z,1.93
2023-05-11T12:33:05.267Z,1.80
2023-05-11T12:35:40.538Z,1.92
2023-05-11T12:38:13.854Z,2.30
2023-05-11T12:40:51.165Z,2.23
2023-05-11T12:43:24.632Z,1.40
2023-05-11T12:45:56.990Z,1.80
2023-05-11T12:48:29.418Z,2.30
2023-05-11T12:51:01.682Z,2.30
2023-05-11T12:53:38.270Z,1.85
2023-05-11T12:56:10.870Z,2.10
2023-05-11T12:58:43.646Z,2.37
2023-05-11T13:01:15.950Z,1.80
2023-05-11T13:03:49.207Z,1.90
2023-05-11T13:08:54.045Z,1.80
2023-05-11T13:11:28.825Z,2.05
2023-05-11T13:14:01.158Z,1.70
2023-05-11T13:16:35.034Z,1.93
2023-05-11T13:19:09.352Z,1.70
2023-05-11T13:21:41.828Z,1.97
2023-05-11T13:24:23.090Z,1.77
2023-05-11T13:26:55.695Z,1.90
2023-05-11T13:29:28.993Z,2.05
2023-05-11T13:32:01.489Z,1.72
2023-05-11T13:34:33.722Z,2.07
2023-05-11T13:37:06.376Z,2.20
2023-05-11T13:39:39.317Z,1.67
2023-05-11T13:42:12.044Z,2.10
2023-05-11T13:44:44.221Z,1.90
2023-05-11T13:47:16.554Z,1.80
2023-05-11T13:49:49.157Z,2.03
2023-05-11T13:52:21.710Z,2.37
2023-05-11T13:54:54.220Z,1.90
2023-05-11T13:57:26.778Z,1.87
2023-05-11T13:59:59.722Z,2.00
2023-05-11T14:02:32.086Z,1.97
2023-05-11T14:05:05.039Z,2.30
2023-05-11T14:07:46.930Z,1.83
2023-05-11T14:10:21.089Z,2.00
2023-05-11T14:12:53.420Z,1.80
2023-05-11T14:15:25.694Z,2.10
2023-05-11T14:17:57.988Z,2.17
2023-05-11T14:20:30.624Z,2.37
2023-05-11T14:23:02.876Z,1.90
2023-05-11T14:25:36.608Z,2.37
2023-05-11T14:30:40.705Z,1.90
2023-05-11T14:33:12.993Z,2.50
2023-05-11T14:35:45.805Z,2.43
2023-05-11T14:38:18.074Z,2.10
2023-05-11T14:40:52.444Z,2.10
2023-05-11T14:43:25.422Z,2.03
2023-05-11T14:45:58.096Z,1.90
2023-05-11T14:48:30.332Z,2.37
2023-05-11T14:51:03.988Z,2.23
2023-05-11T14:53:36.712Z,2.30
2023-05-11T14:56:10.931Z,1.90
2023-05-11T14:58:43.259Z,2.10
2023-05-11T15:01:15.735Z,1.77
2023-05-11T15:03:48.189Z,2.47
2023-05-11T15:06:22.582Z,2.10
2023-05-11T15:08:54.834Z,1.90
2023-05-11T15:11:27.332Z,2.07
2023-05-11T15:13:59.682Z,1.80
2023-05-11T15:16:32.289Z,2.37
2023-05-11T15:19:04.825Z,2.40
2023-05-11T15:21:39.984Z,2.00
2023-05-11T15:24:12.210Z,2.13
2023-05-11T15:26:44.738Z,2.00
2023-05-11T15:29:17.881Z,2.43
2023-05-11T15:31:50.292Z,1.90
2023-05-11T15:34:22.622Z,2.03
2023-05-11T15:36:55.009Z,2.10
2023-05-11T15:39:27.162Z,1.70
2023-05-11T15:41:59.532Z,2.13
2023-05-11T15:44:31.861Z,2.17
2023-05-11T15:47:06.191Z,2.10
2023-05-11T15:49:39.604Z,2.13
2023-05-11T15:52:11.892Z,1.85
2023-05-11T15:54:44.071Z,1.43
2023-05-11T15:57:17.325Z,1.60
2023-05-11T15:59:49.583Z,2.40
2023-05-11T16:02:21.887Z,1.87
2023-05-11T16:04:54.620Z,2.00
2023-05-11T16:07:27.419Z,2.30
2023-05-11T16:09:59.801Z,1.87
2023-05-11T16:12:32.212Z,1.90
2023-05-11T16:15:05.469Z,2.00
2023-05-11T16:17:38.191Z,1.92
2023-05-11T16:20:12.509Z,2.33
2023-05-11T16:22:45.083Z,1.80
2023-05-11T16:25:17.594Z,2.00
2023-05-11T16:27:49.933Z,1.97
2023-05-11T16:30:25.414Z,2.00
2023-05-11T16:32:58.377Z,1.70
2023-05-11T16:35:30.829Z,1.90
2023-05-11T16:38:03.513Z,2.07
2023-05-11T16:40:36.543Z,1.63
2023-05-11T16:43:08.929Z,1.93
2023-05-11T16:45:41.221Z,2.20
2023-05-11T16:48:13.734Z,2.40
2023-05-11T16:50:46.228Z,2.40
2023-05-11T16:53:22.340Z,2.07
2023-05-11T16:55:55.064Z,1.90
2023-05-11T16:58:28.316Z,1.50
2023-05-11T17:01:01.084Z,2.08
2023-05-11T17:03:34.683Z,2.20
2023-05-11T17:06:10.456Z,2.50
2023-05-11T17:08:43.148Z,2.00
2023-05-11T17:11:15.553Z,2.07
2023-05-11T17:13:47.810Z,1.60
2023-05-11T17:16:20.177Z,1.80
2023-05-11T17:18:52.781Z,1.87
2023-05-11T17:21:25.591Z,2.10
2023-05-11T17:23:58.432Z,1.90
2023-05-11T17:26:43.425Z,2.50
2023-05-11T17:29:19.360Z,1.93
2023-05-11T17:31:52.329Z,1.93
2023-05-11T17:34:28.309Z,2.33
2023-05-11T17:37:01.134Z,1.70
2023-05-11T17:39:33.420Z,1.80
2023-05-11T17:42:07.520Z,2.05
2023-05-11T17:44:39.856Z,1.80
2023-05-11T17:47:12.144Z,2.03
2023-05-11T17:49:44.473Z,1.70
2023-05-11T17:52:17.512Z,2.00
2023-05-11T17:54:49.753Z,1.90
2023-05-11T17:57:23.615Z,1.90
2023-05-11T18:02:26.826Z,1.97
2023-05-11T18:04:59.509Z,2.27
2023-05-11T18:07:31.735Z,1.90
2023-05-11T18:10:04.814Z,1.90
2023-05-11T18:12:39.925Z,1.90
2023-05-11T18:15:15.222Z,2.17
2023-05-11T18:17:47.630Z,2.13
2023-05-11T18:20:20.373Z,1.93
2023-05-11T18:22:52.940Z,2.07
2023-05-11T18:25:28.154Z,2.27
2023-05-11T18:28:00.491Z,2.37
2023-05-11T18:30:34.633Z,2.10
2023-05-11T18:33:07.674Z,1.90
2023-05-11T18:35:41.776Z,2.20
2023-05-11T18:40:45.002Z,3.47
2023-05-11T18:43:17.271Z,3.47
2023-05-11T18:45:50.502Z,3.80
2023-05-11T18:48:25.308Z,3.60
2023-05-11T18:50:58.706Z,3.23
2023-05-11T18:53:31.316Z,2.45
2023-05-11T18:56:03.960Z,2.65
2023-05-11T18:58:37.235Z,2.30
2023-05-11T19:01:10.234Z,2.23
2023-05-11T19:03:42.738Z,2.70
2023-05-11T19:06:15.652Z,2.73
2023-05-11T19:08:49.409Z,2.47
2023-05-11T19:11:21.865Z,2.40
2023-05-11T19:13:54.443Z,2.70
2023-05-11T19:16:28.282Z,2.37
2023-05-11T19:19:01.937Z,2.22
2023-05-11T19:21:36.688Z,2.60
2023-05-11T19:24:09.870Z,2.43
2023-05-11T19:26:47.389Z,2.40
2023-05-11T19:29:27.735Z,2.50
2023-05-11T19:32:00.557Z,2.77
2023-05-11T19:34:33.157Z,2.90
2023-05-11T19:37:06.387Z,2.53
2023-05-11T19:39:40.229Z,2.50
2023-05-11T19:42:12.705Z,2.62
2023-05-11T19:44:45.343Z,2.87
2023-05-11T19:47:18.739Z,3.10
2023-05-11T19:49:51.447Z,2.70
2023-05-11T19:52:24.271Z,2.57
2023-05-11T19:54:56.565Z,2.73
2023-05-11T19:57:37.583Z,2.63
2023-05-11T20:00:12.077Z,2.90
2023-05-11T20:02:44.739Z,3.30
2023-05-11T20:05:18.257Z,3.37
2023-05-11T20:07:50.833Z,2.63
2023-05-11T20:10:30.024Z,2.70
2023-05-11T20:13:05.903Z,2.70
2023-05-11T20:15:38.255Z,3.13
2023-05-11T20:18:10.945Z,3.50
2023-05-11T20:20:43.446Z,2.90
2023-05-11T20:23:15.793Z,3.00
2023-05-11T20:25:50.601Z,3.10
2023-05-11T20:28:25.839Z,3.50
2023-05-11T20:31:01.201Z,2.90
2023-05-11T20:36:10.974Z,3.60
2023-05-11T20:38:43.485Z,3.30
2023-05-11T20:41:15.781Z,3.47
2023-05-11T20:43:48.136Z,3.80
2023-05-11T20:46:20.739Z,3.50
2023-05-11T20:48:53.225Z,3.13
2023-05-11T20:51:25.733Z,3.20
2023-05-11T20:53:58.584Z,3.70
2023-05-11T20:56:31.164Z,3.67
2023-05-11T20:59:04.349Z,3.70
2023-05-11T21:01:36.930Z,3.70
2023-05-11T21:04:09.873Z,3.93
2023-05-11T21:06:42.135Z,3.30
2023-05-11T21:09:14.670Z,3.57
2023-05-11T21:11:48.534Z,3.40
2023-05-11T21:14:21.037Z,3.47
2023-05-11T21:16:53.471Z,3.27
2023-05-11T21:19:25.711Z,3.67
2023-05-11T21:21:57.963Z,3.73
2023-05-11T21:24:30.876Z,3.20
2023-05-11T21:27:03.171Z,3.13
2023-05-11T21:29:36.631Z,3.70
2023-05-11T21:32:10.364Z,4.03
2023-05-11T21:34:42.642Z,3.92
2023-05-11T21:37:16.123Z,3.63
2023-05-11T21:39:48.544Z,3.08
2023-05-11T21:42:20.708Z,3.60
2023-05-11T21:44:53.471Z,4.20
2023-05-11T21:47:25.806Z,4.13
2023-05-11T21:49:58.832Z,4.23
2023-05-11T21:52:31.460Z,3.35
2023-05-11T21:55:03.977Z,3.40
2023-05-11T21:57:38.461Z,3.50
2023-05-11T22:00:18.811Z,3.67
2023-05-11T22:02:51.782Z,3.07
2023-05-11T22:05:24.334Z,3.20
2023-05-11T22:08:06.698Z,3.43
2023-05-11T22:10:47.521Z,3.70
2023-05-11T22:13:20.106Z,3.77
2023-05-11T22:15:52.683Z,3.30
2023-05-11T22:18:25.024Z,3.60
2023-05-11T22:20:57.442Z,3.50
2023-05-11T22:23:29.678Z,2.93
2023-05-11T22:26:01.945Z,3.50
2023-05-11T22:28:34.221Z,3.40
2023-05-11T22:31:10.220Z,3.47
2023-05-11T22:33:42.468Z,3.30
2023-05-11T22:36:15.426Z,3.43
2023-05-11T22:38:47.626Z,3.07
2023-05-11T22:41:19.794Z,3.70
2023-05-11T22:43:53.411Z,3.58
2023-05-11T22:46:25.648Z,3.27
2023-05-11T22:48:57.796Z,3.20
2023-05-11T22:51:30.034Z,3.57
2023-05-11T22:54:02.468Z,3.23
2023-05-11T22:56:34.979Z,3.77
2023-05-11T22:59:08.045Z,3.87
2023-05-11T23:01:40.928Z,3.40
2023-05-11T23:04:13.235Z,3.70
2023-05-11T23:06:45.549Z,3.50
2023-05-11T23:09:17.922Z,3.60
2023-05-11T23:11:50.543Z,3.17
2023-05-11T23:14:23.029Z,2.97
2023-05-11T23:16:55.580Z,3.90
2023-05-11T23:19:28.108Z,3.47
2023-05-11T23:22:00.809Z,4.47
2023-05-11T23:24:33.193Z,3.63
2023-05-11T23:27:05.703Z,3.73
2023-05-11T23:29:38.792Z,3.17
2023-05-11T23:32:11.220Z,3.37
2023-05-11T23:34:43.646Z,3.80
2023-05-11T23:37:16.979Z,3.27
2023-05-11T23:39:49.206Z,3.47
2023-05-11T23:42:22.148Z,3.20
2023-05-11T23:44:54.709Z,2.90
2023-05-11T23:47:27.318Z,3.83
2023-05-11T23:49:59.917Z,3.20
2023-05-11T23:52:32.754Z,3.57
2023-05-11T23:55:06.461Z,3.60
2023-05-11T23:57:41.337Z,2.85
